createdAt,value
2023-03-17T00:01:23.638Z,98094.66
2023-03-17T00:03:51.326Z,98088.50
2023-03-17T00:06:28.738Z,98088.97
2023-03-17T00:08:56.634Z,98084.03
2023-03-17T00:11:24.408Z,98064.88
2023-03-17T00:13:51.519Z,98075.47
2023-03-17T00:16:27.064Z,98066.53
2023-03-17T00:18:54.691Z,98060.88
2023-03-17T00:21:27.330Z,98059.69
2023-03-17T00:23:55.300Z,98065.56
2023-03-17T00:26:23.192Z,98066.31
2023-03-17T00:28:51.122Z,98062.84
2023-03-17T00:31:21.321Z,98072.72
2023-03-17T00:33:49.804Z,98071.22
2023-03-17T00:36:19.355Z,98071.22
2023-03-17T00:38:46.393Z,98066.00
2023-03-17T00:41:13.664Z,98067.50
2023-03-17T00:43:41.295Z,98061.84
2023-03-17T00:46:24.653Z,98048.25
2023-03-17T00:48:52.254Z,98043.56
2023-03-17T00:51:19.296Z,98047.81
2023-03-17T00:53:46.688Z,98037.41
2023-03-17T00:56:16.888Z,98037.16
2023-03-17T00:58:44.676Z,98042.06
2023-03-17T01:01:12.498Z,98031.66
2023-03-17T01:03:40.536Z,98038.63
2023-03-17T01:06:11.893Z,98040.09
2023-03-17T01:08:40.756Z,98023.53
2023-03-17T01:11:16.264Z,98013.94
2023-03-17T01:13:43.360Z,98012.94
2023-03-17T01:16:11.724Z,98021.88
2023-03-17T01:18:39.759Z,97998.19
2023-03-17T01:21:08.094Z,97994.72
2023-03-17T01:23:35.237Z,97994.44
2023-03-17T01:26:02.377Z,98000.34
2023-03-17T01:28:29.614Z,97988.25
2023-03-17T01:30:56.785Z,97986.00
2023-03-17T01:33:23.984Z,97982.81
2023-03-17T01:35:51.388Z,97988.00
2023-03-17T01:38:18.809Z,97988.28
2023-03-17T01:40:49.686Z,97976.41
2023-03-17T01:43:26.286Z,97978.44
2023-03-17T01:46:25.664Z,97979.44
2023-03-17T01:49:14.334Z,97979.72
2023-03-17T01:51:48.265Z,97976.72
2023-03-17T01:54:27.078Z,97975.25
2023-03-17T01:56:57.512Z,97970.34
2023-03-17T01:59:28.674Z,97964.22
2023-03-17T02:02:00.041Z,97962.22
2023-03-17T02:04:31.712Z,97955.31
2023-03-17T02:06:59.209Z,97951.63
2023-03-17T02:09:27.302Z,97960.50
2023-03-17T02:11:54.750Z,97957.06
2023-03-17T02:14:22.099Z,97956.53
2023-03-17T02:16:49.365Z,97945.41
2023-03-17T02:19:16.713Z,97964.41
2023-03-17T02:21:46.124Z,97951.34
2023-03-17T02:24:39.031Z,97951.06
2023-03-17T02:27:14.629Z,97945.69
2023-03-17T02:29:42.179Z,97931.38
2023-03-17T02:32:10.180Z,97943.44
2023-03-17T02:34:37.769Z,97942.22
2023-03-17T02:37:05.701Z,97936.25
2023-03-17T02:39:32.752Z,97945.38
2023-03-17T02:42:00.162Z,97940.19
2023-03-17T02:44:27.701Z,97938.72
2023-03-17T02:46:54.862Z,97933.53
2023-03-17T02:49:22.412Z,97933.78
2023-03-17T02:51:49.445Z,97927.13
2023-03-17T02:54:16.875Z,97926.38
2023-03-17T02:56:43.917Z,97927.88
2023-03-17T02:59:11.047Z,97926.38
2023-03-17T03:01:39.705Z,97930.81
2023-03-17T03:04:07.292Z,97921.47
2023-03-17T03:06:35.052Z,97912.34
2023-03-17T03:09:02.279Z,97912.38
2023-03-17T03:11:29.536Z,97931.38
2023-03-17T03:13:56.976Z,97917.81
2023-03-17T03:16:26.243Z,97919.03
2023-03-17T03:18:53.315Z,97921.03
2023-03-17T03:21:20.665Z,97928.91
2023-03-17T03:23:47.884Z,97920.53
2023-03-17T03:26:15.052Z,97926.91
2023-03-17T03:28:42.206Z,97935.03
2023-03-17T03:31:09.657Z,97944.38
2023-03-17T03:33:37.065Z,97937.97
2023-03-17T03:36:04.228Z,97936.22
2023-03-17T03:38:31.614Z,97936.00
2023-03-17T03:40:58.738Z,97940.19
2023-03-17T03:43:25.840Z,97928.38
2023-03-17T03:45:54.523Z,97925.94
2023-03-17T03:48:21.918Z,97918.06
2023-03-17T03:50:49.010Z,97916.63
2023-03-17T03:53:16.228Z,97906.97
2023-03-17T03:55:43.319Z,97908.00
2023-03-17T03:58:10.607Z,97905.78
2023-03-17T04:00:37.762Z,97903.56
2023-03-17T04:03:05.247Z,97909.53
2023-03-17T04:05:33.832Z,97910.03
2023-03-17T04:08:00.922Z,97919.38
2023-03-17T04:10:28.111Z,97917.66
2023-03-17T04:12:56.365Z,97918.41
2023-03-17T04:15:24.215Z,97928.50
2023-03-17T04:17:51.879Z,97924.81
2023-03-17T04:20:19.482Z,97930.78
2023-03-17T04:22:46.643Z,97921.16
2023-03-17T04:25:14.889Z,97925.09
2023-03-17T04:27:42.677Z,97924.59
2023-03-17T04:30:13.713Z,97919.44
2023-03-17T04:32:41.769Z,97912.03
2023-03-17T04:35:13.594Z,97895.03
2023-03-17T04:37:41.542Z,97894.28
2023-03-17T04:40:09.973Z,97890.06
2023-03-17T04:42:37.618Z,97873.06
2023-03-17T04:45:06.539Z,97871.56
2023-03-17T04:47:34.209Z,97865.16
2023-03-17T04:50:01.917Z,97864.88
2023-03-17T04:52:29.238Z,97867.34
2023-03-17T04:54:56.373Z,97861.19
2023-03-17T04:57:24.488Z,97865.84
2023-03-17T04:59:52.197Z,97873.22
2023-03-17T05:02:19.385Z,97865.59
2023-03-17T05:04:46.526Z,97866.81
2023-03-17T05:07:13.692Z,97879.88
2023-03-17T05:09:40.949Z,97877.41
2023-03-17T05:12:09.976Z,97879.13
2023-03-17T05:14:37.340Z,97885.03
2023-03-17T05:17:04.473Z,97892.44
2023-03-17T05:19:31.500Z,97894.91
2023-03-17T05:21:58.882Z,97888.50
2023-03-17T05:24:27.309Z,97897.56
2023-03-17T05:26:54.494Z,97895.09
2023-03-17T05:29:21.661Z,97896.81
2023-03-17T05:31:49.701Z,97890.66
2023-03-17T05:34:17.375Z,97893.88
2023-03-17T05:36:44.692Z,97899.03
2023-03-17T05:39:14.589Z,97900.53
2023-03-17T05:41:42.282Z,97896.88
2023-03-17T05:44:09.576Z,97889.72
2023-03-17T05:46:37.269Z,97903.81
2023-03-17T05:49:04.480Z,97902.31
2023-03-17T05:51:31.750Z,97903.53
2023-03-17T05:53:59.082Z,97905.00
2023-03-17T05:56:33.406Z,97904.75
2023-03-17T05:59:01.586Z,97907.47
2023-03-17T06:01:29.527Z,97902.28
2023-03-17T06:03:56.914Z,97902.78
2023-03-17T06:06:24.702Z,97905.75
2023-03-17T06:08:52.273Z,97907.72
2023-03-17T06:11:22.726Z,97913.91
2023-03-17T06:13:49.895Z,97906.78
2023-03-17T06:16:16.997Z,97899.88
2023-03-17T06:18:45.706Z,97902.88
2023-03-17T06:21:13.453Z,97906.31
2023-03-17T06:23:40.559Z,97902.88
2023-03-17T06:26:07.585Z,97892.56
2023-03-17T06:28:34.669Z,97900.94
2023-03-17T06:31:01.817Z,97904.66
2023-03-17T06:33:29.172Z,97921.94
2023-03-17T06:35:58.734Z,97927.84
2023-03-17T06:38:26.145Z,97908.16
2023-03-17T06:40:53.315Z,97906.22
2023-03-17T06:43:22.310Z,97901.78
2023-03-17T06:45:49.442Z,97891.44
2023-03-17T06:48:16.664Z,97895.16
2023-03-17T06:50:44.010Z,97889.00
2023-03-17T06:53:11.408Z,97893.44
2023-03-17T06:55:38.657Z,97893.19
2023-03-17T06:58:06.233Z,97892.44
2023-03-17T07:00:33.318Z,97887.00
2023-03-17T07:03:00.510Z,97892.44
2023-03-17T07:05:28.223Z,97885.03
2023-03-17T07:07:55.810Z,97878.91
2023-03-17T07:10:23.431Z,97870.75
2023-03-17T07:12:50.572Z,97868.06
2023-03-17T07:15:18.830Z,97861.91
2023-03-17T07:17:47.100Z,97874.00
2023-03-17T07:20:15.807Z,97874.03
2023-03-17T07:22:42.877Z,97882.22
2023-03-17T07:25:10.939Z,97864.94
2023-03-17T07:27:38.691Z,97854.78
2023-03-17T07:30:06.568Z,97867.34
2023-03-17T07:32:34.021Z,97868.31
2023-03-17T07:35:01.390Z,97871.03
2023-03-17T07:37:28.670Z,97880.84
2023-03-17T07:39:56.101Z,97882.31
2023-03-17T07:42:23.144Z,97877.53
2023-03-17T07:44:50.503Z,97881.19
2023-03-17T07:47:17.655Z,97869.47
2023-03-17T07:49:44.789Z,97875.91
2023-03-17T07:52:12.668Z,97868.94
2023-03-17T07:54:43.007Z,97861.22
2023-03-17T07:57:11.082Z,97868.56
2023-03-17T07:59:39.967Z,97868.63
2023-03-17T08:02:07.329Z,97860.97
2023-03-17T08:04:35.090Z,97856.31
2023-03-17T08:07:02.174Z,97861.94
2023-03-17T08:09:29.230Z,97869.09
2023-03-17T08:11:56.378Z,97852.31
2023-03-17T08:14:23.524Z,97844.88
2023-03-17T08:16:51.262Z,97847.09
2023-03-17T08:19:18.333Z,97846.81
2023-03-17T08:21:45.764Z,97846.56
2023-03-17T08:24:12.827Z,97844.09
2023-03-17T08:26:39.950Z,97839.41
2023-03-17T08:29:08.038Z,97830.72
2023-03-17T08:31:35.913Z,97834.88
2023-03-17T08:34:03.080Z,97838.25
2023-03-17T08:36:33.684Z,97838.63
2023-03-17T08:39:04.407Z,97844.44
2023-03-17T08:41:31.602Z,97830.69
2023-03-17T08:43:58.981Z,97839.00
2023-03-17T08:46:29.325Z,97838.88
2023-03-17T08:48:57.969Z,97838.25
2023-03-17T08:51:27.447Z,97848.59
2023-03-17T08:53:55.051Z,97843.31
2023-03-17T08:56:22.613Z,97838.69
2023-03-17T08:58:50.823Z,97838.94
2023-03-17T09:01:20.816Z,97836.50
2023-03-17T09:03:48.622Z,97829.03
2023-03-17T09:06:15.963Z,97820.28
2023-03-17T09:08:48.170Z,97830.72
2023-03-17T09:11:17.704Z,97827.31
2023-03-17T09:13:46.417Z,97821.88
2023-03-17T09:16:14.788Z,97821.50
2023-03-17T09:18:43.220Z,97823.28
2023-03-17T09:21:11.669Z,97834.75
2023-03-17T09:23:38.744Z,97836.13
2023-03-17T09:26:06.012Z,97845.06
2023-03-17T09:28:33.839Z,97869.06
2023-03-17T09:31:02.895Z,97841.34
2023-03-17T09:33:30.389Z,97837.69
2023-03-17T09:35:57.516Z,97836.72
2023-03-17T09:38:26.322Z,97826.91
2023-03-17T09:41:19.969Z,97830.56
2023-03-17T09:43:52.499Z,97837.13
2023-03-17T09:46:41.376Z,97834.72
2023-03-17T09:49:13.886Z,97854.59
2023-03-17T09:51:43.137Z,97844.44
2023-03-17T09:54:24.494Z,97838.94
2023-03-17T09:56:58.791Z,97833.25
2023-03-17T09:59:35.872Z,97832.88
2023-03-17T10:02:03.176Z,97834.78
2023-03-17T10:04:30.697Z,97841.84
2023-03-17T10:07:01.426Z,97831.97
2023-03-17T10:09:46.118Z,97839.25
2023-03-17T10:12:21.268Z,97848.09
2023-03-17T10:14:59.562Z,97834.44
2023-03-17T10:17:32.827Z,97839.31
2023-03-17T10:20:04.749Z,97832.41
2023-03-17T10:22:38.981Z,97817.78
2023-03-17T10:25:13.701Z,97824.91
2023-03-17T10:27:41.118Z,97816.88
2023-03-17T10:30:21.116Z,97823.31
2023-03-17T10:32:48.945Z,97824.41
2023-03-17T10:35:16.754Z,97820.41
2023-03-17T10:37:46.054Z,97812.28
2023-03-17T10:40:28.516Z,97815.84
2023-03-17T10:43:02.219Z,97823.00
2023-03-17T10:45:34.508Z,97825.75
2023-03-17T10:48:04.274Z,97824.50
2023-03-17T10:50:34.476Z,97821.75
2023-03-17T10:53:07.806Z,97820.28
2023-03-17T10:55:37.334Z,97823.63
2023-03-17T10:58:07.588Z,97827.09
2023-03-17T11:00:38.362Z,97822.28
2023-03-17T11:03:18.151Z,97828.50
2023-03-17T11:06:12.426Z,97822.81
2023-03-17T11:08:49.317Z,97810.00
2023-03-17T11:11:27.500Z,97815.91
2023-03-17T11:14:05.183Z,97824.69
2023-03-17T11:16:35.144Z,97820.66
2023-03-17T11:19:03.448Z,97811.13
2023-03-17T11:21:32.070Z,97808.28
2023-03-17T11:24:12.880Z,97803.94
2023-03-17T11:26:51.966Z,97808.56
2023-03-17T11:29:23.698Z,97808.00
2023-03-17T11:32:50.037Z,97803.25
2023-03-17T11:35:56.078Z,97803.59
2023-03-17T11:38:46.821Z,97802.53
2023-03-17T11:41:36.195Z,97801.97
2023-03-17T11:44:23.462Z,97798.09
2023-03-17T11:47:02.307Z,97799.41
2023-03-17T11:49:37.733Z,97795.16
2023-03-17T11:52:13.699Z,97783.94
2023-03-17T11:54:47.240Z,97780.66
2023-03-17T11:57:27.245Z,97770.19
2023-03-17T12:00:02.759Z,97765.47
2023-03-17T12:02:36.778Z,97760.47
2023-03-17T12:05:07.144Z,97757.00
2023-03-17T12:07:57.402Z,97751.56
2023-03-17T12:10:37.722Z,97742.38
2023-03-17T12:13:12.791Z,97749.88
2023-03-17T12:15:47.408Z,97732.81
2023-03-17T12:18:26.342Z,97732.81
2023-03-17T12:21:00.325Z,97751.72
2023-03-17T12:23:48.236Z,97733.56
2023-03-17T12:26:39.231Z,97736.28
2023-03-17T12:29:30.139Z,97735.72
2023-03-17T12:32:03.890Z,97736.28
2023-03-17T12:34:58.005Z,97725.09
2023-03-17T12:37:27.650Z,97723.47
2023-03-17T12:40:00.647Z,97730.03
2023-03-17T12:42:38.768Z,97731.50
2023-03-17T12:45:27.626Z,97723.22
2023-03-17T12:48:19.050Z,97730.22
2023-03-17T12:50:50.073Z,97715.41
2023-03-17T12:53:51.450Z,97721.47
2023-03-17T12:56:31.142Z,97714.88
2023-03-17T12:59:06.189Z,97721.47
2023-03-17T13:01:59.118Z,97721.25
2023-03-17T13:04:30.318Z,97720.19
2023-03-17T13:07:10.519Z,97721.66
2023-03-17T13:09:43.406Z,97713.03
2023-03-17T13:12:41.949Z,97706.44
2023-03-17T13:15:34.041Z,97698.53
2023-03-17T13:18:16.317Z,97707.13
2023-03-17T13:20:44.709Z,97690.44
2023-03-17T13:23:13.639Z,97697.44
2023-03-17T13:25:45.939Z,97690.63
2023-03-17T13:28:12.976Z,97685.09
2023-03-17T13:30:39.946Z,97676.97
2023-03-17T13:33:10.142Z,97674.72
2023-03-17T13:35:46.222Z,97686.25
2023-03-17T13:38:39.775Z,97684.97
2023-03-17T13:41:22.928Z,97690.66
2023-03-17T13:44:12.917Z,97692.66
2023-03-17T13:46:46.676Z,97690.44
2023-03-17T13:49:19.562Z,97691.69
2023-03-17T13:52:08.842Z,97690.44
2023-03-17T13:54:47.492Z,97688.97
2023-03-17T13:57:21.954Z,97681.81
2023-03-17T14:00:14.863Z,97678.97
2023-03-17T14:02:42.339Z,97676.34
2023-03-17T14:05:20.324Z,97673.19
2023-03-17T14:07:56.030Z,97676.16
2023-03-17T14:10:26.662Z,97674.94
2023-03-17T14:13:01.444Z,97672.34
2023-03-17T14:15:35.035Z,97677.16
2023-03-17T14:18:22.441Z,97671.38
2023-03-17T14:20:58.096Z,97676.19
2023-03-17T14:23:25.794Z,97675.13
2023-03-17T14:25:56.420Z,97665.78
2023-03-17T14:28:31.771Z,97672.22
2023-03-17T14:31:20.190Z,97670.66
2023-03-17T14:33:47.304Z,97664.63
2023-03-17T14:36:14.779Z,97677.44
2023-03-17T14:38:48.765Z,97674.88
2023-03-17T14:41:19.034Z,97686.63
2023-03-17T14:43:46.762Z,97676.16
2023-03-17T14:46:33.472Z,97674.50
2023-03-17T14:49:14.656Z,97674.28
2023-03-17T14:51:42.299Z,97671.34
2023-03-17T14:54:25.018Z,97674.44
2023-03-17T14:57:00.139Z,97668.19
2023-03-17T14:59:37.093Z,97668.94
2023-03-17T15:02:20.780Z,97660.97
2023-03-17T15:04:59.675Z,97664.78
2023-03-17T15:07:39.828Z,97665.81
2023-03-17T15:10:17.811Z,97664.31
2023-03-17T15:12:48.809Z,97661.03
2023-03-17T15:15:26.031Z,97653.69
2023-03-17T15:17:58.015Z,97646.31
2023-03-17T15:20:25.907Z,97649.25
2023-03-17T15:22:56.129Z,97662.78
2023-03-17T15:25:29.134Z,97670.59
2023-03-17T15:27:56.328Z,97670.34
2023-03-17T15:30:24.688Z,97663.41
2023-03-17T15:33:02.547Z,97660.84
2023-03-17T15:35:29.626Z,97657.44
2023-03-17T15:37:56.983Z,97659.97
2023-03-17T15:40:24.263Z,97652.09
2023-03-17T15:42:51.305Z,97662.00
2023-03-17T15:45:18.349Z,97658.34
2023-03-17T15:47:47.238Z,97661.78
2023-03-17T15:50:23.872Z,97662.13
2023-03-17T15:52:56.180Z,97665.47
2023-03-17T15:55:25.842Z,97657.25
2023-03-17T15:57:55.360Z,97663.25
2023-03-17T16:00:25.326Z,97652.03
2023-03-17T16:02:57.090Z,97662.09
2023-03-17T16:05:26.042Z,97666.78
2023-03-17T16:07:53.627Z,97637.25
2023-03-17T16:10:24.353Z,97653.84
2023-03-17T16:12:52.160Z,97651.03
2023-03-17T16:15:23.601Z,97642.03
2023-03-17T16:17:52.751Z,97636.72
2023-03-17T16:20:20.370Z,97628.31
2023-03-17T16:22:47.559Z,97631.78
2023-03-17T16:25:26.816Z,97632.81
2023-03-17T16:27:56.239Z,97633.50
2023-03-17T16:30:26.382Z,97625.28
2023-03-17T16:32:54.615Z,97630.75
2023-03-17T16:35:23.857Z,97649.28
2023-03-17T16:37:52.651Z,97633.03
2023-03-17T16:40:35.553Z,97629.38
2023-03-17T16:43:19.093Z,97630.22
2023-03-17T16:45:52.268Z,97631.69
2023-03-17T16:48:19.333Z,97633.50
2023-03-17T16:50:46.564Z,97633.44
2023-03-17T16:53:14.046Z,97630.91
2023-03-17T16:55:41.512Z,97625.41
2023-03-17T16:58:18.080Z,97637.44
2023-03-17T17:00:46.983Z,97639.56
2023-03-17T17:03:14.801Z,97632.28
2023-03-17T17:05:42.096Z,97635.75
2023-03-17T17:08:09.496Z,97628.44
2023-03-17T17:10:37.578Z,97628.81
2023-03-17T17:13:07.806Z,97633.56
2023-03-17T17:15:36.455Z,97636.84
2023-03-17T17:18:18.179Z,97631.16
2023-03-17T17:20:46.684Z,97625.81
2023-03-17T17:23:16.950Z,97624.84
2023-03-17T17:25:44.617Z,97618.03
2023-03-17T17:28:13.673Z,97614.38
2023-03-17T17:30:44.945Z,97613.28
2023-03-17T17:33:12.319Z,97623.63
2023-03-17T17:35:40.716Z,97611.75
2023-03-17T17:38:16.604Z,97616.78
2023-03-17T17:40:43.786Z,97623.44
2023-03-17T17:43:11.016Z,97615.03
2023-03-17T17:45:38.226Z,97618.63
2023-03-17T17:48:05.586Z,97631.38
2023-03-17T17:50:32.933Z,97618.97
2023-03-17T17:53:05.398Z,97620.03
2023-03-17T17:55:33.736Z,97620.34
2023-03-17T17:58:01.079Z,97618.47
2023-03-17T18:00:28.926Z,97621.22
2023-03-17T18:02:56.410Z,97620.16
2023-03-17T18:05:23.554Z,97628.59
2023-03-17T18:07:50.728Z,97625.03
2023-03-17T18:10:25.136Z,97621.97
2023-03-17T18:12:53.616Z,97623.53
2023-03-17T18:15:22.274Z,97636.78
2023-03-17T18:17:49.466Z,97622.69
2023-03-17T18:20:21.368Z,97645.31
2023-03-17T18:22:49.677Z,97627.66
2023-03-17T18:25:17.345Z,97629.66
2023-03-17T18:27:45.512Z,97635.63
2023-03-17T18:30:23.812Z,97619.22
2023-03-17T18:32:53.572Z,97634.50
2023-03-17T18:35:22.392Z,97633.31
2023-03-17T18:37:50.510Z,97628.38
2023-03-17T18:40:19.040Z,97624.72
2023-03-17T18:42:46.676Z,97623.47
2023-03-17T18:45:14.521Z,97629.13
2023-03-17T18:47:42.049Z,97625.66
2023-03-17T18:50:11.846Z,97622.94
2023-03-17T18:52:41.112Z,97615.06
2023-03-17T18:55:09.796Z,97617.06
2023-03-17T18:57:37.078Z,97615.56
2023-03-17T19:00:05.811Z,97611.59
2023-03-17T19:02:33.349Z,97624.53
2023-03-17T19:05:01.478Z,97616.81
2023-03-17T19:07:28.604Z,97613.69
2023-03-17T19:09:56.066Z,97615.25
2023-03-17T19:12:23.842Z,97609.50
2023-03-17T19:14:51.085Z,97602.13
2023-03-17T19:17:18.623Z,97598.31
2023-03-17T19:19:46.206Z,97602.03
2023-03-17T19:22:14.054Z,97589.28
2023-03-17T19:24:41.603Z,97587.81
2023-03-17T19:27:08.771Z,97584.03
2023-03-17T19:29:35.925Z,97589.63
2023-03-17T19:32:03.354Z,97591.09
2023-03-17T19:34:30.458Z,97586.16
2023-03-17T19:36:58.188Z,97591.28
2023-03-17T19:39:25.948Z,97597.81
2023-03-17T19:41:55.157Z,97588.03
2023-03-17T19:44:22.678Z,97584.03
2023-03-17T19:46:50.360Z,97586.75
2023-03-17T19:49:17.746Z,97579.31
2023-03-17T19:51:44.925Z,97594.03
2023-03-17T19:54:12.024Z,97593.69
2023-03-17T19:56:39.177Z,97606.63
2023-03-17T19:59:06.917Z,97605.16
2023-03-17T20:01:34.073Z,97608.41
2023-03-17T20:04:01.215Z,97605.28
2023-03-17T20:06:29.446Z,97599.81
2023-03-17T20:08:56.772Z,97604.22
2023-03-17T20:11:23.854Z,97605.69
2023-03-17T20:13:51.084Z,97606.97
2023-03-17T20:16:18.786Z,97605.28
2023-03-17T20:18:45.869Z,97599.59
2023-03-17T20:21:13.565Z,97607.91
2023-03-17T20:23:40.851Z,97603.59
2023-03-17T20:26:09.162Z,97602.84
2023-03-17T20:28:36.891Z,97603.91
2023-03-17T20:31:04.844Z,97600.22
2023-03-17T20:33:33.299Z,97602.31
2023-03-17T20:36:02.029Z,97597.91
2023-03-17T20:38:31.064Z,97600.44
2023-03-17T20:41:24.642Z,97601.47
2023-03-17T20:43:51.938Z,97601.91
2023-03-17T20:46:21.513Z,97600.97
2023-03-17T20:48:48.770Z,97605.47
2023-03-17T20:51:17.213Z,97605.28
2023-03-17T20:53:49.731Z,97601.28
2023-03-17T20:56:19.748Z,97586.34
2023-03-17T20:58:48.444Z,97600.53
2023-03-17T21:01:20.890Z,97595.63
2023-03-17T21:03:48.990Z,97596.56
2023-03-17T21:06:16.540Z,97605.06
2023-03-17T21:08:44.080Z,97599.81
2023-03-17T21:11:14.954Z,97604.84
2023-03-17T21:13:44.042Z,97598.16
2023-03-17T21:16:20.324Z,97594.34
2023-03-17T21:18:50.367Z,97597.59
2023-03-17T21:21:18.112Z,97601.06
2023-03-17T21:23:45.372Z,97592.44
2023-03-17T21:26:12.742Z,97603.69
2023-03-17T21:28:41.624Z,97598.22
2023-03-17T21:31:10.127Z,97591.41
2023-03-17T21:33:37.394Z,97589.00
2023-03-17T21:36:05.594Z,97600.41
2023-03-17T21:38:32.757Z,97592.56
2023-03-17T21:41:18.834Z,97598.34
2023-03-17T21:43:46.660Z,97600.09
2023-03-17T21:46:14.473Z,97602.94
2023-03-17T21:48:41.635Z,97600.41
2023-03-17T21:51:08.690Z,97592.75
2023-03-17T21:53:35.728Z,97595.97
2023-03-17T21:56:03.960Z,97582.88
2023-03-17T21:58:31.031Z,97587.59
2023-03-17T22:01:00.644Z,97587.19
2023-03-17T22:03:27.919Z,97587.06
2023-03-17T22:05:55.026Z,97586.09
2023-03-17T22:08:22.667Z,97582.63
2023-03-17T22:10:49.698Z,97583.34
2023-03-17T22:13:17.250Z,97580.00
2023-03-17T22:15:44.828Z,97580.94
2023-03-17T22:18:11.940Z,97581.03
2023-03-17T22:20:39.067Z,97584.72
2023-03-17T22:23:06.185Z,97593.13
2023-03-17T22:25:33.236Z,97586.72
2023-03-17T22:28:00.628Z,97595.34
2023-03-17T22:30:27.881Z,97593.84
2023-03-17T22:32:55.001Z,97592.91
2023-03-17T22:35:23.376Z,97595.94
2023-03-17T22:37:50.921Z,97585.63
2023-03-17T22:40:19.046Z,97579.88
2023-03-17T22:42:46.691Z,97589.63
2023-03-17T22:45:13.768Z,97596.09
2023-03-17T22:47:40.995Z,97586.53
2023-03-17T22:50:09.031Z,97590.19
2023-03-17T22:52:37.102Z,97586.53
2023-03-17T22:55:04.718Z,97591.03
2023-03-17T22:57:31.828Z,97582.41
2023-03-17T22:59:59.259Z,97593.19
2023-03-17T23:02:26.608Z,97580.06
2023-03-17T23:04:54.243Z,97577.94
2023-03-17T23:07:21.342Z,97585.09
2023-03-17T23:09:48.738Z,97575.22
2023-03-17T23:12:16.874Z,97580.97
2023-03-17T23:14:44.060Z,97588.94
2023-03-17T23:17:11.251Z,97584.66
2023-03-17T23:19:38.376Z,97585.91
2023-03-17T23:22:05.538Z,97588.72
2023-03-17T23:24:32.761Z,97589.81
2023-03-17T23:26:59.896Z,97593.81
2023-03-17T23:29:27.677Z,97595.38
2023-03-17T23:31:58.579Z,97600.06
2023-03-17T23:34:26.056Z,97604.28
2023-03-17T23:36:53.268Z,97599.56
2023-03-17T23:39:20.786Z,97600.59
2023-03-17T23:41:47.907Z,97597.66
2023-03-17T23:44:15.194Z,97599.13
2023-03-17T23:46:43.445Z,97595.66
2023-03-17T23:49:12.145Z,97602.38
2023-03-17T23:51:40.813Z,97592.72
2023-03-17T23:54:09.827Z,97591.47
2023-03-17T23:56:37.218Z,97595.44
2023-03-17T23:59:04.363Z,97600.16
